Time;durP1;ratioP1;P1;durP2;ratioP2;P2;SDS_P1;SDS_P2;PMS_P1;PMS_P2;Temp;Humidity;BMP_temperature;BMP_pressure;BME280_temperature;BME280_humidity;BME280_pressure;Samples;Min_cycle;Max_cycle;Signal;HPM_P1;HPM_P2
2021/04/22 00:00:27;;;;;;;;;;;23.40;46.00;;;;;;1562137;74;1162;-59
2021/04/22 00:02:29;;;;;;;;;;;23.40;46.00;;;;;;1549872;74;782;-60
2021/04/22 00:04:31;;;;;;;;;;;23.40;46.10;;;;;;1561586;74;874;-59
2021/04/22 00:06:32;;;;;;;;;;;23.40;46.20;;;;;;1554557;74;766;-60
2021/04/22 00:08:34;;;;;;;;;;;23.40;46.20;;;;;;1549225;74;756;-59
2021/04/22 00:10:46;;;;;;;;;;;23.40;46.20;;;;;;1553790;74;1083;-57
2021/04/22 00:12:48;;;;;;;;;;;23.40;46.30;;;;;;1552002;74;1928;-59
2021/04/22 00:14:50;;;;;;;;;;;23.50;46.50;;;;;;1552280;74;782;-61
2021/04/22 00:16:52;;;;;;;;;;;23.50;46.40;;;;;;1553640;74;752;-55
2021/04/22 00:18:54;;;;;;;;;;;23.40;46.30;;;;;;1558176;74;1146;-60
2021/04/22 00:20:56;;;;;;;;;;;23.40;46.40;;;;;;1563632;74;732;-58
2021/04/22 00:22:58;;;;;;;;;;;23.50;46.40;;;;;;1561352;74;948;-58
2021/04/22 00:24:59;;;;;;;;;;;23.40;46.30;;;;;;1555977;74;666;-57
2021/04/22 00:27:01;;;;;;;;;;;23.50;46.50;;;;;;1557148;74;651;-56
2021/04/22 00:29:03;;;;;;;;;;;23.40;46.30;;;;;;1564217;74;1138;-60
2021/04/22 00:31:05;;;;;;;;;;;23.50;46.30;;;;;;1559772;74;731;-60
2021/04/22 00:33:12;;;;;;;;;;;23.40;46.20;;;;;;1556991;74;1931;-56
2021/04/22 00:35:13;;;;;;;;;;;23.40;46.20;;;;;;1563299;74;826;-60
2021/04/22 00:37:15;;;;;;;;;;;23.40;46.10;;;;;;1562672;75;636;-55
2021/04/22 00:39:17;;;;;;;;;;;23.30;46.20;;;;;;1564578;74;1154;-60
2021/04/22 00:41:19;;;;;;;;;;;23.40;46.20;;;;;;1571692;74;772;-56
2021/04/22 00:43:21;;;;;;;;;;;23.40;46.20;;;;;;1563906;74;860;-58
2021/04/22 00:45:23;;;;;;;;;;;23.40;46.30;;;;;;1560761;74;710;-58
2021/04/22 00:47:25;;;;;;;;;;;23.40;46.20;;;;;;1565208;74;718;-57
2021/04/22 00:49:26;;;;;;;;;;;23.40;46.20;;;;;;1564006;74;1126;-56
2021/04/22 00:51:28;;;;;;;;;;;23.30;46.10;;;;;;1561815;74;737;-61
2021/04/22 00:53:30;;;;;;;;;;;23.30;46.30;;;;;;1560733;74;1938;-60
2021/04/22 00:55:32;;;;;;;;;;;23.20;46.20;;;;;;1569901;74;716;-61
2021/04/22 00:57:34;;;;;;;;;;;23.30;46.30;;;;;;1561459;74;779;-60
2021/04/22 00:59:36;;;;;;;;;;;23.20;46.10;;;;;;1555766;74;1122;-57
2021/04/22 01:01:38;;;;;;;;;;;23.40;46.00;;;;;;1568561;74;900;-58
2021/04/22 01:03:40;;;;;;;;;;;23.30;46.00;;;;;;1564005;74;720;-53
2021/04/22 01:05:42;;;;;;;;;;;23.40;45.90;;;;;;1565390;74;742;-55
2021/04/22 01:07:44;;;;;;;;;;;23.30;45.90;;;;;;1554826;74;752;-59
2021/04/22 01:09:46;;;;;;;;;;;23.30;45.90;;;;;;1564748;74;1133;-58
2021/04/22 01:11:48;;;;;;;;;;;23.30;45.90;;;;;;1567687;74;725;-57
2021/04/22 01:13:50;;;;;;;;;;;23.30;45.90;;;;;;1565710;74;1938;-54
2021/04/22 01:15:52;;;;;;;;;;;23.20;45.80;;;;;;1569724;74;947;-56
2021/04/22 01:17:54;;;;;;;;;;;23.30;45.90;;;;;;1565807;74;734;-60
2021/04/22 01:19:56;;;;;;;;;;;23.20;45.80;;;;;;1567615;74;1140;-58
2021/04/22 01:21:58;;;;;;;;;;;23.20;45.90;;;;;;1565601;74;773;-59
2021/04/22 01:23:59;;;;;;;;;;;23.30;46.00;;;;;;1565175;74;735;-57
2021/04/22 01:26:01;;;;;;;;;;;23.20;45.80;;;;;;1525390;76;711;-59
2021/04/22 01:28:04;;;;;;;;;;;23.30;46.10;;;;;;1564692;74;801;-59
2021/04/22 01:30:07;;;;;;;;;;;23.20;46.00;;;;;;1567368;74;1141;-60
2021/04/22 01:32:09;;;;;;;;;;;23.30;45.90;;;;;;1593209;70;215488;-65
2021/04/22 01:34:11;;;;;;;;;;;23.30;46.00;;;;;;1640105;70;1952;-63
2021/04/22 01:36:13;;;;;;;;;;;23.30;46.10;;;;;;1641481;70;794;-63
2021/04/22 01:38:15;;;;;;;;;;;23.20;46.00;;;;;;1640956;70;735;-63
2021/04/22 01:40:17;;;;;;;;;;;23.20;45.90;;;;;;1625335;70;768;-63
2021/04/22 01:42:19;;;;;;;;;;;23.20;45.90;;;;;;1639775;70;1201;-62
2021/04/22 01:44:21;;;;;;;;;;;23.30;46.10;;;;;;1608576;71;685;-63
2021/04/22 01:46:23;;;;;;;;;;;23.20;46.10;;;;;;1617901;71;778;-61
2021/04/22 01:48:25;;;;;;;;;;;23.30;46.30;;;;;;1612905;71;816;-63
2021/04/22 01:50:28;;;;;;;;;;;23.20;46.20;;;;;;1626524;71;855;-62
2021/04/22 01:52:30;;;;;;;;;;;23.20;46.20;;;;;;1613583;71;1139;-64
2021/04/22 01:54:32;;;;;;;;;;;23.30;46.30;;;;;;1614127;71;1941;-63
2021/04/22 01:56:34;;;;;;;;;;;23.30;46.20;;;;;;1614804;71;729;-63
2021/04/22 01:58:35;;;;;;;;;;;23.30;46.30;;;;;;1606653;71;777;-65
2021/04/22 02:00:39;;;;;;;;;;;23.30;46.30;;;;;;1612977;71;764;-63
2021/04/22 02:02:41;;;;;;;;;;;23.20;46.10;;;;;;1616904;71;1169;-63
2021/04/22 02:04:44;;;;;;;;;;;23.20;46.00;;;;;;1612983;71;785;-63
2021/04/22 02:06:46;;;;;;;;;;;23.20;46.10;;;;;;1618077;71;746;-62
2021/04/22 02:08:47;;;;;;;;;;;23.30;46.30;;;;;;1621037;71;751;-64
2021/04/22 02:10:49;;;;;;;;;;;23.20;46.20;;;;;;1619919;72;804;-63
2021/04/22 02:12:51;;;;;;;;;;;23.30;46.20;;;;;;1638512;71;1959;-63
2021/04/22 02:14:53;;;;;;;;;;;23.30;46.20;;;;;;1621784;71;779;-63
2021/04/22 02:16:55;;;;;;;;;;;23.30;46.30;;;;;;1618209;72;796;-63
2021/04/22 02:18:57;;;;;;;;;;;23.30;46.30;;;;;;1621584;72;750;-61
2021/04/22 02:20:59;;;;;;;;;;;23.30;46.20;;;;;;1625334;71;867;-62
2021/04/22 02:23:01;;;;;;;;;;;23.30;46.30;;;;;;1617550;71;1121;-62
2021/04/22 02:25:04;;;;;;;;;;;23.30;46.20;;;;;;1611579;71;746;-63
2021/04/22 02:27:07;;;;;;;;;;;23.20;46.20;;;;;;1626725;71;806;-62
2021/04/22 02:29:09;;;;;;;;;;;23.30;46.20;;;;;;1616004;71;743;-60
2021/04/22 02:31:11;;;;;;;;;;;23.20;46.20;;;;;;1620991;71;784;-63
2021/04/22 02:33:14;;;;;;;;;;;23.20;46.10;;;;;;1620751;72;1924;-63
2021/04/22 02:35:16;;;;;;;;;;;23.20;46.20;;;;;;1627821;72;859;-62
2021/04/22 02:37:18;;;;;;;;;;;23.20;46.10;;;;;;1616614;71;742;-62
2021/04/22 02:39:20;;;;;;;;;;;23.30;46.30;;;;;;1627961;71;734;-62
2021/04/22 02:41:22;;;;;;;;;;;23.20;46.10;;;;;;1624242;71;777;-63
2021/04/22 02:43:24;;;;;;;;;;;23.20;46.00;;;;;;1611589;71;1130;-64
2021/04/22 02:45:27;;;;;;;;;;;23.30;46.20;;;;;;1607855;71;743;-64
2021/04/22 02:47:29;;;;;;;;;;;23.20;46.10;;;;;;1610246;72;789;-64
2021/04/22 02:49:31;;;;;;;;;;;23.20;46.10;;;;;;1608032;72;886;-65
2021/04/22 02:51:32;;;;;;;;;;;23.20;46.00;;;;;;1610766;72;832;-64
2021/04/22 02:53:34;;;;;;;;;;;23.30;46.00;;;;;;1612606;72;1942;-64
2021/04/22 02:55:36;;;;;;;;;;;23.20;46.00;;;;;;1606102;71;795;-64
2021/04/22 02:57:38;;;;;;;;;;;23.30;46.00;;;;;;1620239;71;722;-65
2021/04/22 02:59:40;;;;;;;;;;;23.30;46.00;;;;;;1615778;71;830;-64
2021/04/22 03:01:42;;;;;;;;;;;23.30;46.00;;;;;;1623565;71;1173;-64
2021/04/22 03:03:44;;;;;;;;;;;23.20;45.80;;;;;;1617655;72;734;-64
2021/04/22 03:05:46;;;;;;;;;;;23.20;45.90;;;;;;1615090;71;816;-65
2021/04/22 03:07:48;;;;;;;;;;;23.20;45.90;;;;;;1627048;71;797;-64
2021/04/22 03:09:49;;;;;;;;;;;23.30;46.00;;;;;;1619195;71;921;-65
2021/04/22 03:11:52;;;;;;;;;;;23.30;46.00;;;;;;1620713;71;1159;-63
2021/04/22 03:13:54;;;;;;;;;;;23.30;46.20;;;;;;1607303;71;1933;-64
2021/04/22 03:15:56;;;;;;;;;;;23.30;46.10;;;;;;1615389;71;765;-64
2021/04/22 03:17:58;;;;;;;;;;;23.30;46.20;;;;;;1606363;71;721;-66
2021/04/22 03:20:00;;;;;;;;;;;23.30;46.20;;;;;;1623851;71;739;-65
2021/04/22 03:22:01;;;;;;;;;;;23.30;46.10;;;;;;1622156;71;1158;-67
2021/04/22 03:24:04;;;;;;;;;;;23.20;46.00;;;;;;1610715;72;736;-63
2021/04/22 03:26:06;;;;;;;;;;;23.30;46.00;;;;;;1611180;72;737;-64
2021/04/22 03:28:08;;;;;;;;;;;23.30;46.00;;;;;;1602243;71;803;-63
2021/04/22 03:30:11;;;;;;;;;;;23.20;45.90;;;;;;1613614;71;844;-64
2021/04/22 03:32:13;;;;;;;;;;;23.20;45.80;;;;;;1610788;71;1132;-67
2021/04/22 03:34:15;;;;;;;;;;;23.30;45.90;;;;;;1614136;71;1943;-64
2021/04/22 03:36:17;;;;;;;;;;;23.20;45.80;;;;;;1609645;71;830;-65
2021/04/22 03:38:19;;;;;;;;;;;23.30;45.90;;;;;;1607181;71;732;-65
2021/04/22 03:40:21;;;;;;;;;;;23.20;45.80;;;;;;1610308;71;771;-65
2021/04/22 03:42:23;;;;;;;;;;;23.30;45.90;;;;;;1609884;71;1129;-66
2021/04/22 03:44:25;;;;;;;;;;;23.30;45.70;;;;;;1616508;72;910;-66
2021/04/22 03:46:27;;;;;;;;;;;23.20;45.70;;;;;;1612241;72;726;-66
2021/04/22 03:48:29;;;;;;;;;;;23.30;45.80;;;;;;1621348;71;821;-64
2021/04/22 03:50:31;;;;;;;;;;;23.30;45.80;;;;;;1615196;72;777;-64
2021/04/22 03:52:33;;;;;;;;;;;23.30;45.80;;;;;;1617938;72;1075;-65
2021/04/22 03:54:35;;;;;;;;;;;23.30;45.70;;;;;;1624617;72;1936;-65
2021/04/22 03:56:36;;;;;;;;;;;23.20;45.80;;;;;;1618060;71;830;-65
2021/04/22 03:58:38;;;;;;;;;;;23.20;45.80;;;;;;1621273;71;709;-64
2021/04/22 04:00:40;;;;;;;;;;;23.30;45.90;;;;;;1616312;72;751;-65
2021/04/22 04:02:42;;;;;;;;;;;23.30;45.90;;;;;;1612905;71;1197;-66
2021/04/22 04:04:44;;;;;;;;;;;23.30;46.00;;;;;;1622805;71;887;-66
2021/04/22 04:06:46;;;;;;;;;;;23.30;45.90;;;;;;1615407;72;781;-64
2021/04/22 04:08:48;;;;;;;;;;;23.30;45.90;;;;;;1613077;72;877;-65
2021/04/22 04:10:50;;;;;;;;;;;23.30;45.90;;;;;;1619233;72;787;-65
2021/04/22 04:12:51;;;;;;;;;;;23.20;45.80;;;;;;1607425;72;1122;-63
2021/04/22 04:14:54;;;;;;;;;;;23.30;46.00;;;;;;1617639;72;1938;-64
2021/04/22 04:16:56;;;;;;;;;;;23.30;46.10;;;;;;1611267;71;768;-67
2021/04/22 04:18:57;;;;;;;;;;;23.30;46.10;;;;;;1610921;71;811;-65
2021/04/22 04:20:59;;;;;;;;;;;23.30;46.00;;;;;;1608390;71;698;-65
2021/04/22 04:23:01;;;;;;;;;;;23.30;46.10;;;;;;1621714;72;1151;-64
2021/04/22 04:25:04;;;;;;;;;;;23.30;46.10;;;;;;1620180;71;785;-63
2021/04/22 04:27:06;;;;;;;;;;;23.30;46.00;;;;;;1612135;71;808;-64
2021/04/22 04:29:08;;;;;;;;;;;23.20;46.00;;;;;;1620473;71;935;-65
2021/04/22 04:31:10;;;;;;;;;;;23.20;45.90;;;;;;1614822;71;854;-65
2021/04/22 04:33:12;;;;;;;;;;;23.20;46.00;;;;;;1613039;71;1130;-66
2021/04/22 04:35:13;;;;;;;;;;;23.20;46.00;;;;;;1617483;71;1945;-63
2021/04/22 04:37:15;;;;;;;;;;;23.20;46.00;;;;;;1619793;71;838;-61
2021/04/22 04:39:17;;;;;;;;;;;23.20;45.90;;;;;;1608073;71;758;-64
2021/04/22 04:41:19;;;;;;;;;;;23.20;46.00;;;;;;1621989;71;729;-64
2021/04/22 04:43:21;;;;;;;;;;;23.30;46.00;;;;;;1622845;72;1229;-64
2021/04/22 04:45:23;;;;;;;;;;;23.20;46.00;;;;;;1617018;71;743;-64
2021/04/22 04:47:25;;;;;;;;;;;23.20;45.90;;;;;;1615052;71;686;-64
2021/04/22 04:49:27;;;;;;;;;;;23.20;46.00;;;;;;1621558;71;760;-64
2021/04/22 04:51:28;;;;;;;;;;;23.20;46.00;;;;;;1619572;72;843;-64
2021/04/22 04:53:31;;;;;;;;;;;23.20;46.00;;;;;;1610719;72;1112;-64
2021/04/22 04:55:33;;;;;;;;;;;23.20;46.00;;;;;;1611061;71;1932;-63
2021/04/22 04:57:34;;;;;;;;;;;23.30;46.00;;;;;;1629002;72;804;-63
2021/04/22 04:59:36;;;;;;;;;;;23.20;46.00;;;;;;1617664;71;749;-64
2021/04/22 05:01:38;;;;;;;;;;;23.20;46.00;;;;;;1621032;72;1137;-64
2021/04/22 05:03:40;;;;;;;;;;;23.20;46.00;;;;;;1619145;71;734;-68
2021/04/22 05:05:42;;;;;;;;;;;23.10;46.30;;;;;;1621389;71;736;-68
2021/04/22 05:07:44;;;;;;;;;;;23.20;46.20;;;;;;1621836;71;770;-68
2021/04/22 05:09:46;;;;;;;;;;;23.20;46.30;;;;;;1624685;71;801;-66
2021/04/22 05:11:48;;;;;;;;;;;23.10;46.30;;;;;;1626399;71;1166;-64
2021/04/22 05:13:49;;;;;;;;;;;23.20;46.30;;;;;;1614973;71;742;-66
2021/04/22 05:15:52;;;;;;;;;;;23.20;46.20;;;;;;1611369;71;794;-66
2021/04/22 05:17:54;;;;;;;;;;;23.20;46.20;;;;;;1618387;72;735;-66
2021/04/22 05:19:56;;;;;;;;;;;23.20;46.40;;;;;;1621990;71;776;-67
2021/04/22 05:21:58;;;;;;;;;;;23.10;46.40;;;;;;1627401;72;1115;-67
2021/04/22 05:24:00;;;;;;;;;;;23.00;46.30;;;;;;1615767;71;826;-67
2021/04/22 05:26:01;;;;;;;;;;;23.10;46.20;;;;;;1610195;71;791;-67
2021/04/22 05:28:04;;;;;;;;;;;23.10;46.00;;;;;;1614823;71;671;-70
2021/04/22 05:30:06;;;;;;;;;;;23.20;45.70;;;;;;1613805;71;797;-68
2021/04/22 05:32:08;;;;;;;;;;;23.20;45.50;;;;;;1628629;72;1056;-68
2021/04/22 05:34:10;;;;;;;;;;;23.30;45.30;;;;;;1611128;71;1927;-69
2021/04/22 05:36:12;;;;;;;;;;;23.20;45.20;;;;;;1612884;71;844;-68
2021/04/22 05:38:14;;;;;;;;;;;23.20;45.30;;;;;;1615254;72;727;-69
2021/04/22 05:40:16;;;;;;;;;;;23.30;45.20;;;;;;1617574;71;765;-67
2021/04/22 05:42:18;;;;;;;;;;;23.40;45.10;;;;;;1623987;71;1113;-69
2021/04/22 05:44:20;;;;;;;;;;;23.30;45.00;;;;;;1614119;71;788;-67
2021/04/22 05:46:22;;;;;;;;;;;23.30;45.20;;;;;;1619905;72;765;-66
2021/04/22 05:48:23;;;;;;;;;;;23.40;45.30;;;;;;1610780;71;795;-67
2021/04/22 05:50:25;;;;;;;;;;;23.40;44.80;;;;;;1618953;71;728;-66
2021/04/22 05:52:27;;;;;;;;;;;23.50;44.80;;;;;;1611393;71;1159;-68
2021/04/22 05:54:29;;;;;;;;;;;23.50;45.00;;;;;;1623069;71;1931;-68
2021/04/22 05:56:31;;;;;;;;;;;23.40;45.00;;;;;;1624020;71;713;-70
2021/04/22 05:58:33;;;;;;;;;;;23.30;45.10;;;;;;1627403;71;800;-67
2021/04/22 06:00:35;;;;;;;;;;;23.30;45.10;;;;;;1614751;71;822;-67
2021/04/22 06:02:37;;;;;;;;;;;23.40;44.40;;;;;;1610972;71;1113;-68
2021/04/22 06:04:39;;;;;;;;;;;23.50;44.40;;;;;;1619970;71;807;-69
2021/04/22 06:06:40;;;;;;;;;;;23.50;43.80;;;;;;1629035;71;776;-69
2021/04/22 06:08:42;;;;;;;;;;;23.50;43.60;;;;;;1616674;71;604;-69
2021/04/22 06:10:44;;;;;;;;;;;23.60;43.30;;;;;;1618923;72;612;-68
2021/04/22 06:12:46;;;;;;;;;;;23.50;43.10;;;;;;1620215;71;1185;-68
2021/04/22 06:14:48;;;;;;;;;;;23.60;43.10;;;;;;1621365;71;1928;-69
2021/04/22 06:16:50;;;;;;;;;;;23.60;43.10;;;;;;1608207;71;718;-69
2021/04/22 06:18:52;;;;;;;;;;;23.60;43.00;;;;;;1615008;71;791;-71
2021/04/22 06:20:54;;;;;;;;;;;23.70;43.00;;;;;;1610629;72;754;-68
2021/04/22 06:22:56;;;;;;;;;;;23.70;42.60;;;;;;1618676;73;1106;-69
2021/04/22 06:24:58;;;;;;;;;;;23.60;42.20;;;;;;1613954;71;743;-68
2021/04/22 06:27:00;;;;;;;;;;;23.80;42.50;;;;;;1625161;71;958;-68
2021/04/22 06:29:04;;;;;;;;;;;23.70;42.30;;;;;;1621872;71;777;-70
2021/04/22 06:31:05;;;;;;;;;;;23.80;42.10;;;;;;1623916;71;1663;-66
2021/04/22 06:33:07;;;;;;;;;;;23.90;42.10;;;;;;1619184;71;1116;-69
2021/04/22 06:35:10;;;;;;;;;;;23.80;42.00;;;;;;1615944;71;1933;-68
2021/04/22 06:37:11;;;;;;;;;;;23.90;42.20;;;;;;1618347;71;751;-68
2021/04/22 06:39:13;;;;;;;;;;;23.90;42.20;;;;;;1630632;71;758;-68
2021/04/22 06:41:15;;;;;;;;;;;23.90;42.30;;;;;;1619315;71;789;-67
2021/04/22 06:43:17;;;;;;;;;;;24.00;42.40;;;;;;1612813;73;1134;-69
2021/04/22 06:45:19;;;;;;;;;;;24.00;42.40;;;;;;1616813;71;732;-68
2021/04/22 06:47:21;;;;;;;;;;;24.00;42.30;;;;;;1621387;71;799;-71
2021/04/22 06:49:23;;;;;;;;;;;24.00;42.30;;;;;;1616015;71;750;-68
2021/04/22 06:51:25;;;;;;;;;;;24.00;42.30;;;;;;1621047;72;793;-68
2021/04/22 06:53:26;;;;;;;;;;;24.00;42.40;;;;;;1602766;71;1113;-69
2021/04/22 06:55:28;;;;;;;;;;;23.80;42.90;;;;;;1610987;73;1937;-70
2021/04/22 06:57:30;;;;;;;;;;;23.80;43.70;;;;;;1622466;71;804;-65
2021/04/22 06:59:32;;;;;;;;;;;23.70;45.40;;;;;;1615630;71;755;-68
2021/04/22 07:01:34;;;;;;;;;;;23.70;45.00;;;;;;1612389;73;786;-69
2021/04/22 07:03:36;;;;;;;;;;;23.80;45.60;;;;;;1623269;71;1147;-66
2021/04/22 07:05:38;;;;;;;;;;;23.70;45.90;;;;;;1618862;71;729;-69
2021/04/22 07:07:40;;;;;;;;;;;23.80;45.40;;;;;;1614347;71;799;-68
2021/04/22 07:09:42;;;;;;;;;;;23.80;45.20;;;;;;1593658;73;764;-70
2021/04/22 07:11:44;;;;;;;;;;;23.90;45.20;;;;;;1616028;71;1175;-70
2021/04/22 07:13:45;;;;;;;;;;;23.90;45.20;;;;;;1618521;71;803;-69
2021/04/22 07:15:47;;;;;;;;;;;24.00;45.20;;;;;;1617637;71;1941;-69
2021/04/22 07:17:50;;;;;;;;;;;24.00;45.10;;;;;;1618411;71;815;-70
2021/04/22 07:19:54;;;;;;;;;;;24.00;44.80;;;;;;1618253;72;716;-70
2021/04/22 07:21:55;;;;;;;;;;;24.00;44.70;;;;;;1623500;71;1224;-69
2021/04/22 07:23:57;;;;;;;;;;;24.00;44.60;;;;;;1616628;72;828;-66
2021/04/22 07:25:59;;;;;;;;;;;24.00;44.70;;;;;;1620206;71;852;-66
2021/04/22 07:28:04;;;;;;;;;;;23.90;44.70;;;;;;1626160;71;795;-66
2021/04/22 07:30:07;;;;;;;;;;;23.90;44.40;;;;;;1614553;71;785;-66
2021/04/22 07:32:08;;;;;;;;;;;23.80;43.90;;;;;;1598768;70;217668;-60
2021/04/22 07:34:10;;;;;;;;;;;23.60;43.60;;;;;;1585037;73;702;-61
2021/04/22 07:36:12;;;;;;;;;;;23.70;43.70;;;;;;1569458;73;1930;-62
2021/04/22 07:38:14;;;;;;;;;;;23.60;43.10;;;;;;1593111;73;723;-59
2021/04/22 07:40:18;;;;;;;;;;;23.50;43.30;;;;;;1589410;73;832;-61
2021/04/22 07:42:20;;;;;;;;;;;23.50;43.10;;;;;;1591685;72;1245;-62
2021/04/22 07:44:22;;;;;;;;;;;23.50;43.10;;;;;;1591278;73;660;-62
2021/04/22 07:46:24;;;;;;;;;;;23.50;42.80;;;;;;1589379;73;705;-61
2021/04/22 07:48:26;;;;;;;;;;;23.40;42.70;;;;;;1592260;73;859;-62
2021/04/22 07:50:28;;;;;;;;;;;23.40;42.60;;;;;;1574343;74;763;-64
2021/04/22 07:52:30;;;;;;;;;;;23.40;42.80;;;;;;1582386;73;1117;-61
2021/04/22 07:54:32;;;;;;;;;;;23.30;42.60;;;;;;1591850;73;731;-62
2021/04/22 07:56:33;;;;;;;;;;;23.20;42.50;;;;;;1582495;73;2369;-62
2021/04/22 07:58:35;;;;;;;;;;;23.20;42.50;;;;;;1589126;73;798;-62
2021/04/22 08:00:38;;;;;;;;;;;23.20;42.10;;;;;;1567955;73;808;-62
2021/04/22 08:02:39;;;;;;;;;;;23.20;42.30;;;;;;1619563;71;1128;-61
2021/04/22 08:04:41;;;;;;;;;;;23.20;41.80;;;;;;1608426;72;777;-62
2021/04/22 08:06:43;;;;;;;;;;;23.20;42.10;;;;;;1617898;72;697;-61
2021/04/22 08:08:45;;;;;;;;;;;23.20;41.80;;;;;;1618668;71;778;-62
2021/04/22 08:10:47;;;;;;;;;;;23.10;41.80;;;;;;1626592;71;801;-62
2021/04/22 08:12:49;;;;;;;;;;;23.10;42.10;;;;;;1626644;71;1169;-61
2021/04/22 08:14:53;;;;;;;;;;;23.10;42.10;;;;;;1625007;71;738;-62
2021/04/22 08:16:54;;;;;;;;;;;23.10;41.80;;;;;;1619053;71;1940;-61
2021/04/22 08:18:56;;;;;;;;;;;23.10;42.10;;;;;;1622460;71;932;-60
2021/04/22 08:20:58;;;;;;;;;;;23.10;41.90;;;;;;1624830;72;795;-62
2021/04/22 08:23:00;;;;;;;;;;;23.10;41.80;;;;;;1623539;71;1145;-62
2021/04/22 08:25:03;;;;;;;;;;;23.10;41.80;;;;;;1617586;71;760;-61
2021/04/22 08:27:05;;;;;;;;;;;23.10;41.40;;;;;;1621480;71;784;-62
2021/04/22 08:29:07;;;;;;;;;;;23.20;41.30;;;;;;1619825;71;800;-60
2021/04/22 08:31:10;;;;;;;;;;;23.20;41.10;;;;;;1619105;71;879;-62
2021/04/22 08:33:13;;;;;;;;;;;23.20;41.30;;;;;;1620831;71;1115;-61
2021/04/22 08:35:15;;;;;;;;;;;23.20;40.90;;;;;;1621726;71;1932;-62
2021/04/22 08:37:17;;;;;;;;;;;23.20;40.60;;;;;;1612185;71;766;-63
2021/04/22 08:39:18;;;;;;;;;;;23.20;40.60;;;;;;1615178;71;732;-64
2021/04/22 08:41:20;;;;;;;;;;;23.30;41.00;;;;;;1618669;71;798;-61
2021/04/22 08:43:22;;;;;;;;;;;23.20;41.20;;;;;;1614571;71;1112;-62
2021/04/22 08:45:24;;;;;;;;;;;23.20;40.60;;;;;;1623246;71;835;-61
2021/04/22 08:47:27;;;;;;;;;;;23.10;40.70;;;;;;1615914;71;944;-61
2021/04/22 08:49:29;;;;;;;;;;;23.20;40.90;;;;;;1616643;71;789;-61
2021/04/22 08:51:31;;;;;;;;;;;23.10;41.30;;;;;;1624552;71;774;-61
2021/04/22 08:53:34;;;;;;;;;;;23.10;40.20;;;;;;1612557;72;1106;-61
2021/04/22 08:55:36;;;;;;;;;;;23.10;40.50;;;;;;1608870;71;1902;-62
2021/04/22 08:57:38;;;;;;;;;;;23.20;41.00;;;;;;1630162;71;777;-61
2021/04/22 08:59:40;;;;;;;;;;;23.10;40.00;;;;;;1616600;71;727;-62
2021/04/22 09:01:41;;;;;;;;;;;23.00;40.60;;;;;;1618905;71;783;-62
2021/04/22 09:03:44;;;;;;;;;;;23.00;40.90;;;;;;1612341;71;1031;-62
2021/04/22 09:05:46;;;;;;;;;;;23.00;41.00;;;;;;1626051;71;792;-62
2021/04/22 09:07:48;;;;;;;;;;;23.00;40.70;;;;;;1620599;71;716;-61
2021/04/22 09:09:49;;;;;;;;;;;23.00;40.70;;;;;;1617022;71;708;-61
2021/04/22 09:11:51;;;;;;;;;;;23.00;40.30;;;;;;1610701;73;730;-62
2021/04/22 09:13:54;;;;;;;;;;;23.10;40.20;;;;;;1610531;73;1095;-62
2021/04/22 09:16:06;;;;;;;;;;;23.00;40.00;;;;;;1619656;71;1939;-62
2021/04/22 09:18:09;;;;;;;;;;;23.00;40.30;;;;;;1605001;71;715;-61
2021/04/22 09:20:11;;;;;;;;;;;23.00;40.40;;;;;;1618812;71;623;-62
2021/04/22 09:22:13;;;;;;;;;;;23.00;40.20;;;;;;1620985;70;1122;-60
2021/04/22 09:24:16;;;;;;;;;;;23.10;40.70;;;;;;1617235;71;752;-62
2021/04/22 09:26:18;;;;;;;;;;;23.00;40.50;;;;;;1617422;71;854;-61
2021/04/22 09:28:20;;;;;;;;;;;23.00;40.40;;;;;;1620650;71;714;-64
2021/04/22 09:30:23;;;;;;;;;;;23.00;40.20;;;;;;1624336;71;732;-61
2021/04/22 09:32:27;;;;;;;;;;;23.10;40.20;;;;;;1608379;71;1822;-61
2021/04/22 09:34:29;;;;;;;;;;;23.10;40.20;;;;;;1616301;71;741;-62
2021/04/22 09:36:41;;;;;;;;;;;23.10;40.20;;;;;;1580612;73;1947;-62
2021/04/22 09:38:44;;;;;;;;;;;23.10;40.00;;;;;;1616472;71;688;-62
2021/04/22 09:40:46;;;;;;;;;;;23.10;40.10;;;;;;1620121;71;1858;-61
2021/04/22 09:42:48;;;;;;;;;;;23.00;40.20;;;;;;1614182;71;1129;-64
2021/04/22 09:44:50;;;;;;;;;;;23.00;40.20;;;;;;1613157;71;820;-61
2021/04/22 09:47:09;;;;;;;;;;;22.90;40.20;;;;;;1615024;71;769;-61
2021/04/22 09:49:18;;;;;;;;;;;22.90;40.40;;;;;;1624986;71;693;-63
2021/04/22 09:51:29;;;;;;;;;;;22.90;40.40;;;;;;1622565;71;723;-62
2021/04/22 09:53:32;;;;;;;;;;;22.90;40.30;;;;;;1625559;71;1689;-61
2021/04/22 09:55:33;;;;;;;;;;;23.00;40.30;;;;;;1617133;71;1928;-64
2021/04/22 09:57:36;;;;;;;;;;;23.00;40.00;;;;;;1618084;71;788;-66
2021/04/22 09:59:39;;;;;;;;;;;23.00;39.70;;;;;;1621356;71;828;-63
2021/04/22 10:01:41;;;;;;;;;;;23.00;39.90;;;;;;1620306;71;2014;-64
2021/04/22 10:03:45;;;;;;;;;;;22.90;40.00;;;;;;1611347;71;1150;-63
2021/04/22 10:05:48;;;;;;;;;;;22.90;40.00;;;;;;1613240;71;1736;-63
2021/04/22 10:07:50;;;;;;;;;;;22.90;40.40;;;;;;1613098;71;1904;-67
2021/04/22 10:09:53;;;;;;;;;;;22.90;40.60;;;;;;1612724;71;731;-63
2021/04/22 10:11:55;;;;;;;;;;;22.90;40.90;;;;;;1621643;71;800;-67
2021/04/22 10:13:57;;;;;;;;;;;23.00;41.30;;;;;;1615929;71;1119;-65
2021/04/22 10:15:59;;;;;;;;;;;23.00;41.40;;;;;;1624650;71;1916;-64
2021/04/22 10:18:05;;;;;;;;;;;23.00;41.50;;;;;;1626123;71;910;-63
2021/04/22 10:20:08;;;;;;;;;;;23.00;41.60;;;;;;1616193;71;758;-62
2021/04/22 10:22:10;;;;;;;;;;;23.10;41.60;;;;;;1623538;71;1128;-65
2021/04/22 10:24:15;;;;;;;;;;;23.10;41.70;;;;;;1624076;71;639;-62
2021/04/22 10:26:17;;;;;;;;;;;23.20;41.80;;;;;;1618897;71;915;-60
2021/04/22 10:28:19;;;;;;;;;;;23.20;41.70;;;;;;1632151;71;725;-66
2021/04/22 10:30:22;;;;;;;;;;;23.20;41.70;;;;;;1629211;71;758;-66
2021/04/22 10:32:24;;;;;;;;;;;23.20;41.70;;;;;;1619909;71;1128;-63
2021/04/22 10:34:32;;;;;;;;;;;23.20;41.80;;;;;;1619464;71;839;-65
2021/04/22 10:36:31;;;;;;;;;;;23.20;42.10;;;;;;1618708;71;1932;-65
2021/04/22 10:38:33;;;;;;;;;;;23.10;42.10;;;;;;1633696;71;685;-64
2021/04/22 10:40:39;;;;;;;;;;;23.10;42.30;;;;;;1630080;71;821;-65
2021/04/22 10:42:41;;;;;;;;;;;23.20;42.30;;;;;;1625160;71;1808;-67
2021/04/22 10:44:48;;;;;;;;;;;23.20;42.40;;;;;;1620293;71;675;-65
2021/04/22 10:46:47;;;;;;;;;;;23.20;42.30;;;;;;1636184;71;1603;-65
2021/04/22 10:48:48;;;;;;;;;;;23.20;42.40;;;;;;1623403;71;721;-65
2021/04/22 10:50:52;;;;;;;;;;;23.20;42.70;;;;;;1627736;71;795;-63
2021/04/22 10:52:54;;;;;;;;;;;23.20;42.90;;;;;;1626782;71;1157;-64
2021/04/22 10:54:56;;;;;;;;;;;23.20;42.80;;;;;;1631341;71;713;-65
2021/04/22 10:57:03;;;;;;;;;;;23.20;42.80;;;;;;1619740;71;1916;-64
2021/04/22 10:59:05;;;;;;;;;;;23.20;42.80;;;;;;1622666;71;1811;-63
2021/04/22 11:01:11;;;;;;;;;;;23.20;42.60;;;;;;1635401;71;813;-64
2021/04/22 11:03:14;;;;;;;;;;;23.20;42.80;;;;;;1633859;71;1217;-62
2021/04/22 11:05:21;;;;;;;;;;;23.30;42.80;;;;;;1634676;71;1911;-63
2021/04/22 11:07:23;;;;;;;;;;;23.30;42.90;;;;;;1617953;71;809;-64
2021/04/22 11:09:25;;;;;;;;;;;23.30;43.00;;;;;;1634499;71;707;-63
2021/04/22 11:11:28;;;;;;;;;;;23.30;43.00;;;;;;1624489;72;1138;-64
2021/04/22 11:13:31;;;;;;;;;;;23.30;43.10;;;;;;1619252;71;1140;-66
2021/04/22 11:15:33;;;;;;;;;;;23.30;43.10;;;;;;1617642;71;712;-67
2021/04/22 11:17:35;;;;;;;;;;;23.30;43.20;;;;;;1615773;73;1929;-65
2021/04/22 11:19:40;;;;;;;;;;;23.30;43.40;;;;;;1622968;71;736;-65
2021/04/22 11:21:51;;;;;;;;;;;23.30;43.30;;;;;;1612209;71;1874;-65
2021/04/22 11:23:54;;;;;;;;;;;23.30;42.60;;;;;;1615585;71;1077;-64
2021/04/22 11:25:57;;;;;;;;;;;23.30;42.30;;;;;;1610401;71;742;-66
2021/04/22 11:27:58;;;;;;;;;;;23.20;42.10;;;;;;1619563;71;742;-65
2021/04/22 11:30:02;;;;;;;;;;;23.30;41.80;;;;;;1609752;72;1073;-64
2021/04/22 11:32:06;;;;;;;;;;;23.20;40.50;;;;;;1548199;74;1136;-67
2021/04/22 11:34:08;;;;;;;;;;;23.20;40.20;;;;;;1561919;74;1067;-64
2021/04/22 11:36:17;;;;;;;;;;;23.20;40.30;;;;;;1563728;74;1951;-64
2021/04/22 11:38:19;;;;;;;;;;;23.20;40.20;;;;;;1618948;71;829;-64
2021/04/22 11:40:23;;;;;;;;;;;23.20;39.70;;;;;;1623176;71;722;-63
2021/04/22 11:42:25;;;;;;;;;;;23.10;39.20;;;;;;1612787;71;1147;-64
2021/04/22 11:44:37;;;;;;;;;;;23.10;38.50;;;;;;1620844;71;742;-65
2021/04/22 11:46:40;;;;;;;;;;;23.10;38.00;;;;;;1621695;71;878;-64
2021/04/22 11:48:43;;;;;;;;;;;23.10;38.70;;;;;;1628069;71;681;-64
2021/04/22 11:50:49;;;;;;;;;;;23.20;39.30;;;;;;1624521;71;859;-62
2021/04/22 11:52:55;;;;;;;;;;;23.10;38.70;;;;;;1631248;71;1118;-63
2021/04/22 11:54:57;;;;;;;;;;;23.00;38.00;;;;;;1616559;71;773;-61
2021/04/22 11:57:03;;;;;;;;;;;23.00;38.40;;;;;;1618446;71;1941;-62
2021/04/22 11:59:06;;;;;;;;;;;22.90;38.50;;;;;;1618374;71;776;-64
2021/04/22 12:01:09;;;;;;;;;;;22.90;38.40;;;;;;1626884;71;1910;-60
2021/04/22 12:03:12;;;;;;;;;;;22.90;38.10;;;;;;1633777;71;1182;-62
2021/04/22 12:05:15;;;;;;;;;;;22.80;38.10;;;;;;1618183;71;800;-62
2021/04/22 12:07:18;;;;;;;;;;;22.80;38.30;;;;;;1626049;72;759;-64
2021/04/22 12:09:27;;;;;;;;;;;22.80;38.20;;;;;;1627482;71;861;-62